createdAt,value
2019-04-07T00:00:10.772Z,18.92
2019-04-07T00:01:11.617Z,18.94
2019-04-07T00:02:10.779Z,18.93
2019-04-07T00:03:10.865Z,18.94
2019-04-07T00:04:11.113Z,18.93
2019-04-07T00:05:15.076Z,18.94
2019-04-07T00:06:11.134Z,18.92
2019-04-07T00:07:10.722Z,18.93
2019-04-07T00:08:11.350Z,18.92
2019-04-07T00:09:10.961Z,18.89
2019-04-07T00:10:11.262Z,18.92
2019-04-07T00:11:10.787Z,18.89
2019-04-07T00:12:11.282Z,18.89
2019-04-07T00:13:10.969Z,18.89
2019-04-07T00:14:11.285Z,18.92
2019-04-07T00:15:11.524Z,18.91
2019-04-07T00:16:11.038Z,18.89
2019-04-07T00:17:12.324Z,18.88
2019-04-07T00:18:10.877Z,18.89
2019-04-07T00:19:11.327Z,18.88
2019-04-07T00:20:10.927Z,18.88
2019-04-07T00:21:11.448Z,18.88
2019-04-07T00:22:11.446Z,18.87
2019-04-07T00:23:10.839Z,18.89
2019-04-07T00:24:10.974Z,18.87
2019-04-07T00:25:10.885Z,18.88
2019-04-07T00:26:11.535Z,18.87
2019-04-07T00:27:10.812Z,18.87
2019-04-07T00:28:10.970Z,18.88
2019-04-07T00:29:11.113Z,18.85
2019-04-07T00:30:10.982Z,18.86
2019-04-07T00:31:11.066Z,18.87
2019-04-07T00:32:11.324Z,18.86
2019-04-07T00:33:11.525Z,18.86
2019-04-07T00:34:11.027Z,18.86
2019-04-07T00:35:33.677Z,18.86
2019-04-07T00:36:10.731Z,18.88
2019-04-07T00:37:11.702Z,18.86
2019-04-07T00:38:10.799Z,18.85
2019-04-07T00:39:11.391Z,18.86
2019-04-07T00:40:10.889Z,18.85
2019-04-07T00:41:11.173Z,18.84
2019-04-07T00:42:12.147Z,18.85
2019-04-07T00:43:11.084Z,18.84
2019-04-07T00:44:11.608Z,18.87
2019-04-07T00:45:10.910Z,18.82
2019-04-07T00:46:11.731Z,18.84
2019-04-07T00:47:10.889Z,18.86
2019-04-07T00:48:10.872Z,18.82
2019-04-07T00:49:11.498Z,18.85
2019-04-07T00:50:10.939Z,18.83
2019-04-07T00:51:11.349Z,18.84
2019-04-07T00:52:10.973Z,18.84
2019-04-07T00:53:11.142Z,18.82
2019-04-07T00:54:10.739Z,18.82
2019-04-07T00:55:13.208Z,18.82
2019-04-07T00:56:10.797Z,18.82
2019-04-07T00:57:11.092Z,18.81
2019-04-07T00:58:10.798Z,18.82
2019-04-07T00:59:11.120Z,18.82
2019-04-07T01:00:10.846Z,18.81
2019-04-07T01:01:11.710Z,18.79
2019-04-07T01:02:10.916Z,18.83
2019-04-07T01:03:10.898Z,18.83
2019-04-07T01:04:11.337Z,18.82
2019-04-07T01:05:11.657Z,18.81
2019-04-07T01:06:11.645Z,18.8
2019-04-07T01:07:11.559Z,18.81
2019-04-07T01:08:10.990Z,18.81
2019-04-07T01:09:11.042Z,18.78
2019-04-07T01:10:11.181Z,18.8
2019-04-07T01:11:11.492Z,18.82
2019-04-07T01:12:10.984Z,18.8
2019-04-07T01:13:10.883Z,18.8
2019-04-07T01:14:11.100Z,18.8
2019-04-07T01:15:11.120Z,18.81
2019-04-07T01:16:11.008Z,18.81
2019-04-07T01:17:10.779Z,18.78
2019-04-07T01:18:10.775Z,18.79
2019-04-07T01:19:10.870Z,18.79
2019-04-07T01:20:11.730Z,18.79
2019-04-07T01:21:10.847Z,18.79
2019-04-07T01:22:11.269Z,18.78
2019-04-07T01:23:10.863Z,18.78
2019-04-07T01:24:10.883Z,18.79
2019-04-07T01:25:11.484Z,18.78
2019-04-07T01:26:11.398Z,18.77
2019-04-07T01:27:11.715Z,18.78
2019-04-07T01:28:11.201Z,18.79
2019-04-07T01:29:10.959Z,18.76
2019-04-07T01:30:10.737Z,18.77
2019-04-07T01:31:10.726Z,18.77
2019-04-07T01:32:11.447Z,18.79
2019-04-07T01:33:10.748Z,18.76
2019-04-07T01:34:10.796Z,18.78
2019-04-07T01:35:11.367Z,18.77
2019-04-07T01:36:11.461Z,18.76
2019-04-07T01:37:11.044Z,18.76
2019-04-07T01:38:11.438Z,18.76
2019-04-07T01:39:10.883Z,18.73
2019-04-07T01:40:10.873Z,18.73
2019-04-07T01:41:11.249Z,18.76
2019-04-07T01:42:11.663Z,18.76
2019-04-07T01:43:10.933Z,18.74
2019-04-07T01:44:11.436Z,18.73
2019-04-07T01:45:11.625Z,18.73
2019-04-07T01:46:11.242Z,18.77
2019-04-07T01:47:11.560Z,18.76
2019-04-07T01:48:11.649Z,18.77
2019-04-07T01:49:11.874Z,18.73
2019-04-07T01:50:11.162Z,18.76
2019-04-07T01:51:10.952Z,18.73
2019-04-07T01:52:11.067Z,18.73
2019-04-07T01:53:10.708Z,18.74
2019-04-07T01:54:10.751Z,18.73
2019-04-07T01:55:11.494Z,18.73
2019-04-07T01:56:10.980Z,18.73
2019-04-07T01:57:10.796Z,18.74
2019-04-07T01:58:10.910Z,18.72
2019-04-07T01:59:12.344Z,18.72
2019-04-07T02:00:11.349Z,18.72
2019-04-07T02:01:10.990Z,18.7
2019-04-07T02:02:11.046Z,18.72
2019-04-07T02:03:11.255Z,18.71
2019-04-07T02:04:10.832Z,18.71
2019-04-07T02:05:11.022Z,18.72
2019-04-07T02:06:10.693Z,18.71
2019-04-07T02:07:10.879Z,18.72
2019-04-07T02:08:11.171Z,18.72
2019-04-07T02:09:11.316Z,18.7
2019-04-07T02:10:11.102Z,18.7
2019-04-07T02:11:11.513Z,18.71
2019-04-07T02:12:11.685Z,18.69
2019-04-07T02:13:11.224Z,18.71
2019-04-07T02:14:11.440Z,18.72
2019-04-07T02:15:11.457Z,18.68
2019-04-07T02:16:11.558Z,18.7
2019-04-07T02:17:11.051Z,18.7
2019-04-07T02:18:11.547Z,18.69
2019-04-07T02:19:11.056Z,18.69
2019-04-07T02:20:11.470Z,18.68
2019-04-07T02:21:11.062Z,18.69
2019-04-07T02:22:11.294Z,18.67
2019-04-07T02:23:11.742Z,18.7
2019-04-07T02:24:11.599Z,18.7
2019-04-07T02:25:11.004Z,18.68
2019-04-07T02:26:11.618Z,18.66
2019-04-07T02:27:10.676Z,18.69
2019-04-07T02:28:11.238Z,18.67
2019-04-07T02:29:10.742Z,18.68
2019-04-07T02:30:10.698Z,18.66
2019-04-07T02:31:10.904Z,18.66
2019-04-07T02:32:10.907Z,18.67
2019-04-07T02:33:11.065Z,18.67
2019-04-07T02:34:12.101Z,18.68
2019-04-07T02:35:10.831Z,18.66
2019-04-07T02:36:32.006Z,18.68
2019-04-07T02:37:10.810Z,18.66
2019-04-07T02:38:19.432Z,18.66
2019-04-07T02:39:11.420Z,18.66
2019-04-07T02:40:12.214Z,18.67
2019-04-07T02:41:11.082Z,18.67
2019-04-07T02:42:11.316Z,18.66
2019-04-07T02:43:10.911Z,18.66
2019-04-07T02:44:11.050Z,18.66
2019-04-07T02:45:11.272Z,18.67
2019-04-07T02:46:11.266Z,18.66
2019-04-07T02:47:10.858Z,18.66
2019-04-07T02:48:10.936Z,18.65
2019-04-07T02:49:11.085Z,18.66
2019-04-07T02:50:10.855Z,18.65
2019-04-07T02:51:11.299Z,18.66
2019-04-07T02:52:11.403Z,18.62
2019-04-07T02:53:11.349Z,18.64
2019-04-07T02:54:10.874Z,18.62
2019-04-07T02:55:11.147Z,18.63
2019-04-07T02:56:10.948Z,18.64
2019-04-07T02:57:10.873Z,18.63
2019-04-07T02:58:10.917Z,18.64
2019-04-07T02:59:14.764Z,18.64
2019-04-07T03:00:12.226Z,18.64
2019-04-07T03:01:11.677Z,18.64
2019-04-07T03:02:11.915Z,18.64
2019-04-07T03:03:11.099Z,18.63
2019-04-07T03:04:12.076Z,18.64
2019-04-07T03:05:12.213Z,18.65
2019-04-07T03:06:10.666Z,18.63
2019-04-07T03:07:11.418Z,18.61
2019-04-07T03:08:12.230Z,18.62
2019-04-07T03:09:11.147Z,18.61
2019-04-07T03:10:11.028Z,18.61
2019-04-07T03:11:10.932Z,18.62
2019-04-07T03:12:10.804Z,18.62
2019-04-07T03:13:10.946Z,18.62
2019-04-07T03:14:12.588Z,18.62
2019-04-07T03:15:11.430Z,18.59
2019-04-07T03:16:11.043Z,18.61
2019-04-07T03:17:12.007Z,18.62
2019-04-07T03:18:10.879Z,18.62
2019-04-07T03:19:11.181Z,18.61
2019-04-07T03:20:10.897Z,18.61
2019-04-07T03:21:13.269Z,18.57
2019-04-07T03:22:11.399Z,18.61
2019-04-07T03:23:10.756Z,18.58
2019-04-07T03:24:12.720Z,18.59
2019-04-07T03:25:11.447Z,18.61
2019-04-07T03:26:16.454Z,18.58
2019-04-07T03:27:10.993Z,18.59
2019-04-07T03:28:12.892Z,18.59
2019-04-07T03:29:12.094Z,18.59
2019-04-07T03:30:15.209Z,18.59
2019-04-07T03:31:21.329Z,18.58
2019-04-07T03:32:27.524Z,18.59
2019-04-07T03:33:27.297Z,18.59
2019-04-07T03:34:16.144Z,18.59
2019-04-07T03:35:27.847Z,18.58
2019-04-07T03:36:29.296Z,18.58
2019-04-07T03:37:48.139Z,18.58
2019-04-07T03:38:12.330Z,18.57
2019-04-07T03:39:11.253Z,18.56
2019-04-07T03:40:13.843Z,18.57
2019-04-07T03:41:12.238Z,18.57
2019-04-07T03:42:10.960Z,18.59
2019-04-07T03:43:10.747Z,18.59
2019-04-07T03:44:12.875Z,18.61
2019-04-07T03:45:11.502Z,18.59
2019-04-07T03:46:10.754Z,18.57
2019-04-07T03:47:11.192Z,18.59
2019-04-07T03:48:10.994Z,18.61
2019-04-07T03:49:11.505Z,18.61
2019-04-07T03:50:12.574Z,18.62
2019-04-07T03:51:11.242Z,18.61
2019-04-07T03:52:12.055Z,18.62
2019-04-07T03:53:10.974Z,18.64
2019-04-07T03:54:10.948Z,18.65
2019-04-07T03:55:11.092Z,18.63
2019-04-07T03:56:10.997Z,18.65
2019-04-07T03:57:11.464Z,18.64
2019-04-07T03:58:10.713Z,18.67
2019-04-07T03:59:11.194Z,18.68
2019-04-07T04:00:10.841Z,18.69
2019-04-07T04:01:10.833Z,18.7
2019-04-07T04:02:12.388Z,18.69
2019-04-07T04:03:11.211Z,18.71
2019-04-07T04:04:10.884Z,18.72
2019-04-07T04:05:10.823Z,18.73
2019-04-07T04:06:14.038Z,18.73
2019-04-07T04:07:37.448Z,18.77
2019-04-07T04:08:11.531Z,18.78
2019-04-07T04:09:11.564Z,18.78
2019-04-07T04:10:10.984Z,18.8
2019-04-07T04:11:11.871Z,18.83
2019-04-07T04:12:11.917Z,18.82
2019-04-07T04:13:12.473Z,18.83
2019-04-07T04:14:11.270Z,18.85
2019-04-07T04:15:10.957Z,18.88
2019-04-07T04:16:10.885Z,18.88
2019-04-07T04:17:11.697Z,18.88
2019-04-07T04:18:12.134Z,18.88
2019-04-07T04:19:11.325Z,18.89
2019-04-07T04:20:10.945Z,18.91
2019-04-07T04:21:11.426Z,18.93
2019-04-07T04:22:14.258Z,18.94
2019-04-07T04:23:12.857Z,18.95
2019-04-07T04:24:10.768Z,18.95
2019-04-07T04:25:11.110Z,18.97
2019-04-07T04:26:10.907Z,18.98
2019-04-07T04:27:11.181Z,19
2019-04-07T04:28:10.811Z,19.01
2019-04-07T04:29:10.773Z,19
2019-04-07T04:30:13.599Z,18.99
2019-04-07T04:31:11.317Z,19.01
2019-04-07T04:32:11.582Z,19.03
2019-04-07T04:33:10.915Z,19.03
2019-04-07T04:34:12.147Z,19.03
2019-04-07T04:35:11.133Z,19.03
2019-04-07T04:36:10.777Z,19.03
2019-04-07T04:37:11.344Z,19.03
2019-04-07T04:38:10.900Z,19.05
2019-04-07T04:39:10.740Z,19.05
2019-04-07T04:40:10.924Z,19.02
2019-04-07T04:41:11.495Z,19
2019-04-07T04:42:11.700Z,18.92
2019-04-07T04:43:10.917Z,18.91
2019-04-07T04:44:10.821Z,18.86
2019-04-07T04:45:10.831Z,18.81
2019-04-07T04:46:15.245Z,18.74
2019-04-07T04:47:10.971Z,18.72
2019-04-07T04:48:12.169Z,18.67
2019-04-07T04:49:12.051Z,18.62
2019-04-07T04:50:11.075Z,18.61
2019-04-07T04:51:13.339Z,18.57
2019-04-07T04:52:11.787Z,18.5
2019-04-07T04:53:10.952Z,18.44
2019-04-07T04:54:11.265Z,18.42
2019-04-07T04:55:11.786Z,18.41
2019-04-07T04:56:11.127Z,18.35
2019-04-07T04:57:11.516Z,18.33
2019-04-07T04:58:11.517Z,18.3
2019-04-07T04:59:13.038Z,18.26
2019-04-07T05:00:10.921Z,18.22
2019-04-07T05:01:10.831Z,18.21
2019-04-07T05:02:11.008Z,18.22
2019-04-07T05:03:11.069Z,18.22
2019-04-07T05:04:11.625Z,18.24
2019-04-07T05:05:11.238Z,18.26
2019-04-07T05:06:12.049Z,18.3
2019-04-07T05:07:12.399Z,18.34
2019-04-07T05:08:11.658Z,18.38
2019-04-07T05:09:10.913Z,18.4
2019-04-07T05:10:11.063Z,18.42
2019-04-07T05:11:11.089Z,18.46
2019-04-07T05:12:10.655Z,18.49
2019-04-07T05:13:11.018Z,18.51
2019-04-07T05:14:11.566Z,18.52
2019-04-07T05:15:10.985Z,18.54
2019-04-07T05:16:12.029Z,18.56
2019-04-07T05:17:12.837Z,18.59
2019-04-07T05:18:11.005Z,18.59
2019-04-07T05:19:11.233Z,18.59
2019-04-07T05:20:11.136Z,18.62
2019-04-07T05:21:10.812Z,18.66
2019-04-07T05:22:11.441Z,18.65
2019-04-07T05:23:11.079Z,18.66
2019-04-07T05:24:11.683Z,18.69
2019-04-07T05:25:10.985Z,18.68
2019-04-07T05:26:11.184Z,18.71
2019-04-07T05:27:11.589Z,18.72
2019-04-07T05:28:11.492Z,18.72
2019-04-07T05:29:11.033Z,18.72
2019-04-07T05:30:11.403Z,18.72
2019-04-07T05:31:10.682Z,18.76
2019-04-07T05:32:11.223Z,18.76
2019-04-07T05:33:11.217Z,18.77
2019-04-07T05:34:10.902Z,18.74
2019-04-07T05:35:10.790Z,18.79
2019-04-07T05:36:10.823Z,18.78
2019-04-07T05:37:11.567Z,18.78
2019-04-07T05:38:11.473Z,18.81
2019-04-07T05:39:10.797Z,18.8
2019-04-07T05:40:11.486Z,18.79
2019-04-07T05:41:10.874Z,18.8
2019-04-07T05:42:11.005Z,18.78
2019-04-07T05:43:10.910Z,18.82
2019-04-07T05:44:11.513Z,18.8
2019-04-07T05:45:11.719Z,18.81
2019-04-07T05:46:11.137Z,18.82
2019-04-07T05:47:15.685Z,18.8
2019-04-07T05:48:11.034Z,18.81
2019-04-07T05:49:11.136Z,18.82
2019-04-07T05:50:11.345Z,18.83
2019-04-07T05:51:10.719Z,18.83
2019-04-07T05:52:10.730Z,18.84
2019-04-07T05:53:14.937Z,18.82
2019-04-07T05:54:12.597Z,18.83
2019-04-07T05:55:11.181Z,18.84
2019-04-07T05:56:11.293Z,18.84
2019-04-07T05:57:10.865Z,18.84
2019-04-07T05:58:11.633Z,18.84
2019-04-07T05:59:15.773Z,18.83
2019-04-07T06:00:17.137Z,18.84
2019-04-07T06:01:10.824Z,18.82
2019-04-07T06:02:12.103Z,18.84
2019-04-07T06:03:12.272Z,18.84
2019-04-07T06:04:19.598Z,18.85
2019-04-07T06:05:12.145Z,18.84
2019-04-07T06:06:11.675Z,18.85
2019-04-07T06:07:10.716Z,18.82
2019-04-07T06:08:40.330Z,18.84
2019-04-07T06:09:11.393Z,18.85
2019-04-07T06:10:10.749Z,18.84
2019-04-07T06:11:11.669Z,18.85
2019-04-07T06:12:10.901Z,18.85
2019-04-07T06:13:15.870Z,18.84
2019-04-07T06:14:17.325Z,18.85
2019-04-07T06:15:11.710Z,18.84
2019-04-07T06:16:10.867Z,18.85
2019-04-07T06:17:11.033Z,18.84
2019-04-07T06:18:10.806Z,18.84
2019-04-07T06:19:10.768Z,18.86
2019-04-07T06:20:19.074Z,18.86
2019-04-07T06:21:17.463Z,18.86
2019-04-07T06:22:11.266Z,18.84
2019-04-07T06:23:11.725Z,18.84
2019-04-07T06:24:11.483Z,18.82
2019-04-07T06:25:11.331Z,18.84
2019-04-07T06:26:13.292Z,18.86
2019-04-07T06:27:18.766Z,18.86
2019-04-07T06:28:10.836Z,18.84
2019-04-07T06:29:11.452Z,18.85
2019-04-07T06:30:11.918Z,18.85
2019-04-07T06:31:10.773Z,18.85
2019-04-07T06:32:11.624Z,18.86
2019-04-07T06:33:11.343Z,18.85
2019-04-07T06:34:12.294Z,18.86
2019-04-07T06:35:14.418Z,18.85
2019-04-07T06:36:11.684Z,18.83
2019-04-07T06:37:10.943Z,18.85
2019-04-07T06:38:10.844Z,18.84
2019-04-07T06:39:11.146Z,18.84
2019-04-07T06:40:11.306Z,18.86
2019-04-07T06:41:11.615Z,18.84
2019-04-07T06:42:11.078Z,18.84
2019-04-07T06:43:10.812Z,18.83
2019-04-07T06:44:24.242Z,18.84
2019-04-07T06:45:12.769Z,18.84
2019-04-07T06:46:10.804Z,18.84
2019-04-07T06:47:10.764Z,18.86
2019-04-07T06:48:11.659Z,18.83
2019-04-07T06:49:15.209Z,18.84
2019-04-07T06:50:17.064Z,18.84
2019-04-07T06:51:10.824Z,18.84
2019-04-07T06:52:10.748Z,18.84
2019-04-07T06:53:21.196Z,18.85
2019-04-07T06:54:11.493Z,18.84
2019-04-07T06:55:10.869Z,18.85
2019-04-07T06:56:11.197Z,18.83
2019-04-07T06:57:11.716Z,18.84
2019-04-07T06:58:11.316Z,18.85
2019-04-07T06:59:16.721Z,18.82
2019-04-07T07:00:11.229Z,18.82
2019-04-07T07:01:11.351Z,18.84
2019-04-07T07:02:10.777Z,18.84
2019-04-07T07:03:11.748Z,18.86
2019-04-07T07:04:14.126Z,18.84
2019-04-07T07:05:14.539Z,18.84
2019-04-07T07:06:11.288Z,18.83
2019-04-07T07:07:10.709Z,18.83
2019-04-07T07:08:12.823Z,18.84
2019-04-07T07:09:16.712Z,18.84
2019-04-07T07:10:11.772Z,18.86
2019-04-07T07:11:31.059Z,18.84
2019-04-07T07:12:40.149Z,18.85
2019-04-07T07:13:36.642Z,18.83
2019-04-07T07:14:46.094Z,18.83
2019-04-07T07:15:11.335Z,18.84
2019-04-07T07:16:17.949Z,18.85
2019-04-07T07:17:21.564Z,18.85
2019-04-07T07:18:11.570Z,18.83
2019-04-07T07:19:10.919Z,18.84
2019-04-07T07:20:12.405Z,18.84
2019-04-07T07:21:11.286Z,18.85
2019-04-07T07:22:18.698Z,18.84
2019-04-07T07:23:16.999Z,18.85
2019-04-07T07:24:25.082Z,18.85
2019-04-07T07:25:13.430Z,18.85
2019-04-07T07:26:11.722Z,18.84
2019-04-07T07:27:12.493Z,18.83
2019-04-07T07:28:13.775Z,18.85
2019-04-07T07:29:19.118Z,18.84
2019-04-07T07:30:10.825Z,18.84
2019-04-07T07:31:10.902Z,18.84
2019-04-07T07:32:12.748Z,18.83
2019-04-07T07:33:11.373Z,18.84
2019-04-07T07:34:11.994Z,18.84
2019-04-07T07:35:16.663Z,18.85
2019-04-07T07:36:10.903Z,18.83
2019-04-07T07:37:12.564Z,18.84
2019-04-07T07:38:10.668Z,18.84
2019-04-07T07:39:14.749Z,18.84
2019-04-07T07:40:18.659Z,18.86
2019-04-07T07:41:11.114Z,18.83
2019-04-07T07:42:12.331Z,18.85
2019-04-07T07:43:10.813Z,18.84
2019-04-07T07:44:10.790Z,18.84
2019-04-07T07:45:14.209Z,18.84
2019-04-07T07:46:10.726Z,18.84
2019-04-07T07:47:12.080Z,18.84
2019-04-07T07:48:11.062Z,18.85
2019-04-07T07:49:12.586Z,18.84
2019-04-07T07:50:12.292Z,18.85
2019-04-07T07:51:16.580Z,18.84
2019-04-07T07:52:14.700Z,18.86
2019-04-07T07:53:11.610Z,18.87
2019-04-07T07:54:17.162Z,18.85
2019-04-07T07:55:11.829Z,18.85
2019-04-07T07:56:14.481Z,18.85
2019-04-07T07:57:11.329Z,18.87
2019-04-07T07:58:10.662Z,18.84
2019-04-07T07:59:11.261Z,18.84
2019-04-07T08:00:11.465Z,18.85
2019-04-07T08:01:17.956Z,18.84
2019-04-07T08:02:20.733Z,18.83
2019-04-07T08:03:10.722Z,18.83
2019-04-07T08:04:10.809Z,18.84
2019-04-07T08:05:11.593Z,18.85
2019-04-07T08:06:11.885Z,18.85
2019-04-07T08:07:16.800Z,18.84
2019-04-07T08:08:11.885Z,18.84
2019-04-07T08:09:26.453Z,18.83
2019-04-07T08:10:11.120Z,18.83
2019-04-07T08:11:18.728Z,18.86
2019-04-07T08:12:11.746Z,18.85
2019-04-07T08:13:11.450Z,18.84
2019-04-07T08:14:18.578Z,18.83
2019-04-07T08:15:10.703Z,18.83
2019-04-07T08:16:11.355Z,18.85
2019-04-07T08:17:12.337Z,18.85
2019-04-07T08:18:12.551Z,18.83
2019-04-07T08:19:11.176Z,18.84
2019-04-07T08:20:13.216Z,18.85
2019-04-07T08:21:20.613Z,18.84
2019-04-07T08:22:11.822Z,18.84
2019-04-07T08:23:14.455Z,18.85
2019-04-07T08:24:19.284Z,18.84
2019-04-07T08:25:11.136Z,18.87
2019-04-07T08:26:13.553Z,18.86
2019-04-07T08:27:11.668Z,18.83
2019-04-07T08:28:10.814Z,18.89
2019-04-07T08:29:15.635Z,18.88
2019-04-07T08:30:14.119Z,18.88
2019-04-07T08:31:11.177Z,18.89
2019-04-07T08:32:11.270Z,18.93
2019-04-07T08:33:10.929Z,18.92
2019-04-07T08:34:11.094Z,18.94
2019-04-07T08:35:10.673Z,18.98
2019-04-07T08:36:15.124Z,18.98
2019-04-07T08:37:16.339Z,18.98
2019-04-07T08:38:13.986Z,19.01
2019-04-07T08:39:36.263Z,19.03
2019-04-07T08:40:12.048Z,19.03
2019-04-07T08:41:16.829Z,19.09
2019-04-07T08:42:20.843Z,19.08
2019-04-07T08:43:11.674Z,19.11
2019-04-07T08:44:11.669Z,19.11
2019-04-07T08:45:11.751Z,19.16
2019-04-07T08:46:11.184Z,19.17
2019-04-07T08:47:23.525Z,19.18
2019-04-07T08:48:11.101Z,19.21
2019-04-07T08:49:11.719Z,19.22
2019-04-07T08:50:10.803Z,19.24
2019-04-07T08:51:11.598Z,19.28
2019-04-07T08:52:13.045Z,19.27
2019-04-07T08:53:14.971Z,19.29
2019-04-07T08:54:18.571Z,19.3
2019-04-07T08:55:10.652Z,19.33
2019-04-07T08:56:12.026Z,19.37
2019-04-07T08:57:10.888Z,19.37
2019-04-07T08:58:33.176Z,19.39
2019-04-07T08:59:18.354Z,19.42
2019-04-07T09:00:18.485Z,19.4
2019-04-07T09:01:10.873Z,19.42
2019-04-07T09:02:11.609Z,19.43
2019-04-07T09:03:17.300Z,19.48
2019-04-07T09:04:17.500Z,19.48
2019-04-07T09:05:11.826Z,19.5
2019-04-07T09:06:11.124Z,19.5
2019-04-07T09:07:10.929Z,19.55
2019-04-07T09:08:10.747Z,19.54
2019-04-07T09:09:11.354Z,19.55
2019-04-07T09:10:10.614Z,19.56
2019-04-07T09:11:13.375Z,19.57
2019-04-07T09:12:11.589Z,19.59
2019-04-07T09:13:10.673Z,19.6
2019-04-07T09:14:10.652Z,19.62
2019-04-07T09:15:13.229Z,19.63
2019-04-07T09:16:18.623Z,19.65
2019-04-07T09:17:11.707Z,19.66
2019-04-07T09:18:19.243Z,19.67
2019-04-07T09:19:10.601Z,19.7
2019-04-07T09:20:11.071Z,19.71
2019-04-07T09:21:21.435Z,19.71
2019-04-07T09:22:12.908Z,19.71
2019-04-07T09:23:12.212Z,19.7
2019-04-07T09:24:12.683Z,19.71
2019-04-07T09:25:12.078Z,19.73
2019-04-07T09:26:12.474Z,19.73
2019-04-07T09:27:24.670Z,19.76
2019-04-07T09:28:11.973Z,19.77
2019-04-07T09:29:10.648Z,19.76
2019-04-07T09:30:11.390Z,19.79
2019-04-07T09:31:10.693Z,19.79
2019-04-07T09:32:10.994Z,19.81
2019-04-07T09:33:12.371Z,19.81
2019-04-07T09:34:11.728Z,19.83
2019-04-07T09:35:11.423Z,19.82
2019-04-07T09:36:11.335Z,19.86
2019-04-07T09:37:10.926Z,19.85
2019-04-07T09:38:11.189Z,19.85
2019-04-07T09:39:12.128Z,19.87
2019-04-07T09:40:12.572Z,19.88
2019-04-07T09:41:10.912Z,19.87
2019-04-07T09:42:10.763Z,19.89
2019-04-07T09:43:11.280Z,19.9
2019-04-07T09:44:12.593Z,19.9
2019-04-07T09:45:13.922Z,19.91
2019-04-07T09:46:12.094Z,19.94
2019-04-07T09:47:11.516Z,19.92
2019-04-07T09:48:10.715Z,19.94
2019-04-07T09:49:10.788Z,19.96
2019-04-07T09:50:11.534Z,19.96
2019-04-07T09:51:11.332Z,19.97
2019-04-07T09:52:18.040Z,19.96
2019-04-07T09:53:10.753Z,19.97
2019-04-07T09:54:11.253Z,19.97
2019-04-07T09:55:12.071Z,19.99
2019-04-07T09:56:13.179Z,20.01
2019-04-07T09:57:11.846Z,20
2019-04-07T09:58:12.179Z,20
2019-04-07T09:59:20.450Z,20
2019-04-07T10:00:11.714Z,20
2019-04-07T10:01:19.614Z,20
2019-04-07T10:02:13.298Z,20.02
2019-04-07T10:03:16.503Z,20.02
2019-04-07T10:04:12.340Z,20.02
2019-04-07T10:05:11.878Z,20.02
2019-04-07T10:06:10.821Z,20.03
2019-04-07T10:07:17.306Z,20.05
2019-04-07T10:08:20.251Z,20.04
2019-04-07T10:09:11.673Z,20.02
2019-04-07T10:10:17.049Z,20.03
2019-04-07T10:11:10.784Z,20.02
2019-04-07T10:12:10.581Z,20.02
2019-04-07T10:13:11.281Z,20.05
2019-04-07T10:14:10.744Z,20.04
2019-04-07T10:15:13.130Z,20.01
2019-04-07T10:16:12.167Z,20.04
2019-04-07T10:17:12.033Z,20.02
2019-04-07T10:18:10.791Z,20.03
2019-04-07T10:19:11.133Z,20.03
2019-04-07T10:20:12.545Z,20.05
2019-04-07T10:21:11.241Z,20.05
2019-04-07T10:22:10.844Z,20.05
2019-04-07T10:23:11.063Z,20.09
2019-04-07T10:24:10.603Z,20.05
2019-04-07T10:25:10.969Z,20.06
2019-04-07T10:26:10.628Z,20.06
2019-04-07T10:27:11.077Z,20.07
2019-04-07T10:28:13.949Z,20.07
2019-04-07T10:29:11.194Z,20.07
2019-04-07T10:30:11.219Z,20.07
2019-04-07T10:31:11.531Z,20.1
2019-04-07T10:32:11.527Z,20.07
2019-04-07T10:33:10.654Z,20.09
2019-04-07T10:34:13.696Z,20.07
2019-04-07T10:35:11.461Z,20.11
2019-04-07T10:36:11.463Z,20.07
2019-04-07T10:37:10.648Z,20.12
2019-04-07T10:38:11.163Z,20.11
2019-04-07T10:39:10.582Z,20.11
2019-04-07T10:40:23.632Z,20.12
2019-04-07T10:41:11.950Z,20.12
2019-04-07T10:42:11.503Z,20.14
2019-04-07T10:43:12.590Z,20.15
2019-04-07T10:44:10.662Z,20.15
2019-04-07T10:45:12.129Z,20.15
2019-04-07T10:46:11.421Z,20.14
2019-04-07T10:47:12.021Z,20.16
2019-04-07T10:48:11.845Z,20.15
2019-04-07T10:49:11.480Z,20.15
2019-04-07T10:50:11.559Z,20.15
2019-04-07T10:51:10.834Z,20.15
2019-04-07T10:52:11.566Z,20.15
2019-04-07T10:53:11.585Z,20.15
2019-04-07T10:54:10.619Z,20.16
2019-04-07T10:55:10.551Z,20.16
2019-04-07T10:56:10.655Z,20.16
2019-04-07T10:57:12.368Z,20.18
2019-04-07T10:58:11.674Z,20.16
2019-04-07T10:59:11.620Z,20.16
2019-04-07T11:00:11.231Z,20.15
2019-04-07T11:01:11.321Z,20.18
2019-04-07T11:02:12.131Z,20.17
2019-04-07T11:03:12.204Z,20.16
2019-04-07T11:04:10.805Z,20.16
2019-04-07T11:05:10.521Z,20.16
2019-04-07T11:06:12.541Z,20.18
2019-04-07T11:07:10.869Z,20.17
2019-04-07T11:08:11.797Z,20.16
2019-04-07T11:09:11.384Z,20.18
2019-04-07T11:10:12.322Z,20.16
2019-04-07T11:11:10.600Z,20.16
2019-04-07T11:12:11.096Z,20.16
2019-04-07T11:13:16.899Z,20.16
2019-04-07T11:14:11.576Z,20.16
2019-04-07T11:15:10.818Z,20.17
2019-04-07T11:16:11.137Z,20.15
2019-04-07T11:17:10.663Z,20.14
2019-04-07T11:18:10.693Z,20.16
2019-04-07T11:19:11.249Z,20.15
2019-04-07T11:20:11.732Z,20.15
2019-04-07T11:21:11.082Z,20.15
2019-04-07T11:22:10.711Z,20.16
2019-04-07T11:23:12.039Z,20.15
2019-04-07T11:24:10.766Z,20.16
2019-04-07T11:25:10.988Z,20.14
2019-04-07T11:26:11.413Z,20.18
2019-04-07T11:27:11.472Z,20.16
2019-04-07T11:28:11.502Z,20.16
2019-04-07T11:29:10.545Z,20.17
2019-04-07T11:30:11.636Z,20.17
2019-04-07T11:31:10.783Z,20.16
2019-04-07T11:32:10.677Z,20.16
2019-04-07T11:33:11.815Z,20.17
2019-04-07T11:34:11.255Z,20.17
2019-04-07T11:35:11.363Z,20.17
2019-04-07T11:36:10.938Z,20.17
2019-04-07T11:37:14.417Z,20.17
2019-04-07T11:38:10.509Z,20.18
2019-04-07T11:39:12.097Z,20.18
2019-04-07T11:40:11.695Z,20.2
2019-04-07T11:41:11.301Z,20.19
2019-04-07T11:42:10.787Z,20.18
2019-04-07T11:43:10.965Z,20.2
2019-04-07T11:44:10.760Z,20.18
2019-04-07T11:45:11.443Z,20.19
2019-04-07T11:46:12.013Z,20.19
2019-04-07T11:47:11.439Z,20.19
2019-04-07T11:48:10.585Z,20.19
2019-04-07T11:49:13.699Z,20.19
2019-04-07T11:50:10.704Z,20.19
2019-04-07T11:51:10.791Z,20.2
2019-04-07T11:52:11.553Z,20.2
2019-04-07T11:53:11.287Z,20.21
2019-04-07T11:54:10.690Z,20.18
2019-04-07T11:55:11.629Z,20.18
2019-04-07T11:56:11.837Z,20.2
2019-04-07T11:57:11.011Z,20.2
2019-04-07T11:58:34.662Z,20.18
2019-04-07T11:59:10.803Z,20.18
2019-04-07T12:00:10.836Z,20.18
2019-04-07T12:01:16.736Z,20.19
2019-04-07T12:02:10.969Z,20.21
2019-04-07T12:03:12.142Z,20.21
2019-04-07T12:04:17.458Z,20.2
2019-04-07T12:05:10.668Z,20.2
2019-04-07T12:06:19.151Z,20.21
2019-04-07T12:07:12.898Z,20.21
2019-04-07T12:08:11.669Z,20.24
2019-04-07T12:09:11.007Z,20.25
2019-04-07T12:10:12.500Z,20.25
2019-04-07T12:11:16.821Z,20.25
2019-04-07T12:12:11.647Z,20.26
2019-04-07T12:13:10.682Z,20.27
2019-04-07T12:14:12.845Z,20.28
2019-04-07T12:15:10.810Z,20.29
2019-04-07T12:16:10.747Z,20.31
2019-04-07T12:17:15.329Z,20.31
2019-04-07T12:18:20.434Z,20.3
2019-04-07T12:19:12.791Z,20.31
2019-04-07T12:20:11.077Z,20.33
2019-04-07T12:21:26.795Z,20.33
2019-04-07T12:22:14.570Z,20.34
2019-04-07T12:23:10.787Z,20.32
2019-04-07T12:24:10.804Z,20.34
2019-04-07T12:25:10.801Z,20.36
2019-04-07T12:26:10.633Z,20.35
2019-04-07T12:27:13.770Z,20.36
2019-04-07T12:28:20.587Z,20.37
2019-04-07T12:29:10.947Z,20.39
2019-04-07T12:30:10.659Z,20.37
2019-04-07T12:31:10.761Z,20.37
2019-04-07T12:32:12.028Z,20.36
2019-04-07T12:33:12.387Z,20.4
2019-04-07T12:34:15.647Z,20.41
2019-04-07T12:35:11.947Z,20.41
2019-04-07T12:36:10.579Z,20.41
2019-04-07T12:37:11.692Z,20.41
2019-04-07T12:38:13.727Z,20.44
2019-04-07T12:39:19.125Z,20.44
2019-04-07T12:40:11.124Z,20.43
2019-04-07T12:41:24.423Z,20.45
2019-04-07T12:42:12.459Z,20.46
2019-04-07T12:43:15.589Z,20.45
2019-04-07T12:44:12.368Z,20.45
2019-04-07T12:45:13.220Z,20.45
2019-04-07T12:46:11.782Z,20.47
2019-04-07T12:47:13.402Z,20.48
2019-04-07T12:48:11.755Z,20.48
2019-04-07T12:49:10.718Z,20.47
2019-04-07T12:50:21.989Z,20.5
2019-04-07T12:51:10.509Z,20.5
2019-04-07T12:52:10.535Z,20.51
2019-04-07T12:53:10.591Z,20.53
2019-04-07T12:54:11.933Z,20.53